THY1525 EDDB-LTFM
Flight info
| Callsign | THY1525 |
|---|---|
| Flight time | N/A |
| Altitude | 35000 |
| Route | ARSAP3Q/06R ARSAP Y210 OLUMA T710 VAGON DCT KELEL DCT EXIDA DCT KEKED DCT TISAD DCT RONBU DCT BUVAK DCT RIXEN |
| Aircraft | A320/M-SDE3FGHIRWY/LB1 |
Departure
| Time | N/A |
|---|---|
| Airport | Berlin Brandenburg Airport (EDDB) |
Arrival
| Time | 2026-05-05 21:27 |
|---|---|
| Airport | İstanbul Airport (LTFM) |
| Time | Latitude | Longitude | Altitude | Speed | Heading |
|---|---|---|---|---|---|
| 2026-05-05 20:08 | 47.59614 | 22.50852 | 34941 ft | 455 kts | 140° |
| 2026-05-05 20:08 | 47.54825 | 22.56978 | 34943 ft | 455 kts | 140° |
| 2026-05-05 20:09 | 47.50004 | 22.63042 | 34950 ft | 455 kts | 141° |
| 2026-05-05 20:09 | 47.45114 | 22.68967 | 34936 ft | 455 kts | 141° |
| 2026-05-05 20:10 | 47.40195 | 22.74875 | 34943 ft | 456 kts | 141° |
| 2026-05-05 20:10 | 47.35281 | 22.80794 | 34945 ft | 456 kts | 141° |
| 2026-05-05 20:11 | 47.30407 | 22.86693 | 34953 ft | 456 kts | 141° |
| 2026-05-05 20:11 | 47.25494 | 22.92624 | 34972 ft | 457 kts | 141° |
| 2026-05-05 20:12 | 47.20564 | 22.98543 | 34962 ft | 458 kts | 141° |
| 2026-05-05 20:12 | 47.15614 | 23.04469 | 34960 ft | 459 kts | 141° |
| 2026-05-05 20:13 | 47.10657 | 23.10386 | 34968 ft | 459 kts | 141° |
| 2026-05-05 20:13 | 47.05702 | 23.16308 | 34975 ft | 459 kts | 141° |
| 2026-05-05 20:14 | 47.00742 | 23.22210 | 34982 ft | 460 kts | 141° |
| 2026-05-05 20:14 | 46.95763 | 23.28118 | 34975 ft | 461 kts | 141° |
| 2026-05-05 20:15 | 46.90768 | 23.34024 | 34992 ft | 462 kts | 141° |
| 2026-05-05 20:15 | 46.85766 | 23.39933 | 34989 ft | 462 kts | 141° |
| 2026-05-05 20:16 | 46.80788 | 23.45787 | 34985 ft | 463 kts | 140° |
| 2026-05-05 20:16 | 46.75768 | 23.51679 | 34976 ft | 463 kts | 141° |
| 2026-05-05 20:17 | 46.70738 | 23.57571 | 34973 ft | 464 kts | 141° |
| 2026-05-05 20:17 | 46.65710 | 23.63457 | 34977 ft | 464 kts | 141° |
| 2026-05-05 20:18 | 46.60664 | 23.69344 | 34995 ft | 464 kts | 141° |
| 2026-05-05 20:18 | 46.55612 | 23.75218 | 34989 ft | 465 kts | 140° |
| 2026-05-05 20:19 | 46.50561 | 23.81086 | 34984 ft | 466 kts | 140° |
| 2026-05-05 20:19 | 46.45485 | 23.86951 | 34982 ft | 466 kts | 141° |
| 2026-05-05 20:20 | 46.40412 | 23.92803 | 34983 ft | 467 kts | 141° |
| 2026-05-05 20:20 | 46.35324 | 23.98670 | 34987 ft | 467 kts | 140° |
| 2026-05-05 20:21 | 46.30232 | 24.04526 | 34987 ft | 468 kts | 140° |
| 2026-05-05 20:21 | 46.25134 | 24.10365 | 34988 ft | 468 kts | 140° |
| 2026-05-05 20:22 | 46.20028 | 24.16207 | 34994 ft | 468 kts | 140° |
| 2026-05-05 20:22 | 46.14916 | 24.22031 | 34997 ft | 468 kts | 140° |
| 2026-05-05 20:23 | 46.09829 | 24.27816 | 35003 ft | 469 kts | 140° |
| 2026-05-05 20:23 | 46.04714 | 24.33638 | 35007 ft | 469 kts | 140° |
| 2026-05-05 20:24 | 45.99596 | 24.39441 | 35005 ft | 469 kts | 141° |
| 2026-05-05 20:24 | 45.94456 | 24.45239 | 35010 ft | 469 kts | 140° |
| 2026-05-05 20:25 | 45.89310 | 24.51036 | 35007 ft | 470 kts | 140° |
| 2026-05-05 20:25 | 45.84160 | 24.56827 | 35020 ft | 470 kts | 140° |
| 2026-05-05 20:26 | 45.79000 | 24.62610 | 35027 ft | 471 kts | 140° |
| 2026-05-05 20:26 | 45.73840 | 24.68383 | 35053 ft | 471 kts | 140° |
| 2026-05-05 20:27 | 45.68665 | 24.74154 | 35046 ft | 471 kts | 140° |
| 2026-05-05 20:27 | 45.63492 | 24.79903 | 35040 ft | 472 kts | 141° |
| 2026-05-05 20:28 | 45.58338 | 24.85631 | 35053 ft | 472 kts | 141° |
| 2026-05-05 20:28 | 45.53161 | 24.91386 | 35071 ft | 472 kts | 140° |
| 2026-05-05 20:29 | 45.47966 | 24.97132 | 35077 ft | 472 kts | 141° |
| 2026-05-05 20:29 | 45.42785 | 25.02840 | 35079 ft | 471 kts | 141° |
| 2026-05-05 20:30 | 45.37602 | 25.08539 | 35067 ft | 471 kts | 141° |
| 2026-05-05 20:30 | 45.32411 | 25.14232 | 35082 ft | 471 kts | 140° |
| 2026-05-05 20:31 | 45.27228 | 25.19910 | 35082 ft | 470 kts | 141° |
| 2026-05-05 20:31 | 45.22045 | 25.25578 | 35079 ft | 470 kts | 141° |
| 2026-05-05 20:32 | 45.17733 | 25.30284 | 35077 ft | 470 kts | 141° |
| 2026-05-05 20:32 | 45.12548 | 25.35915 | 35069 ft | 470 kts | 141° |
| 2026-05-05 20:33 | 45.07358 | 25.41542 | 35074 ft | 470 kts | 141° |
| 2026-05-05 20:33 | 45.02161 | 25.47176 | 35061 ft | 470 kts | 141° |
| 2026-05-05 20:34 | 44.96966 | 25.52789 | 35056 ft | 470 kts | 141° |
| 2026-05-05 20:34 | 44.91759 | 25.58392 | 35047 ft | 470 kts | 141° |
| 2026-05-05 20:35 | 44.86553 | 25.63988 | 35058 ft | 471 kts | 141° |
| 2026-05-05 20:35 | 44.81344 | 25.69582 | 35045 ft | 471 kts | 141° |
| 2026-05-05 20:36 | 44.76124 | 25.75163 | 35041 ft | 471 kts | 141° |
| 2026-05-05 20:36 | 44.70893 | 25.80751 | 35040 ft | 472 kts | 141° |
| 2026-05-05 20:37 | 44.65667 | 25.86318 | 35053 ft | 471 kts | 141° |
| 2026-05-05 20:37 | 44.60428 | 25.91877 | 35048 ft | 471 kts | 141° |
| 2026-05-05 20:38 | 44.55229 | 25.97380 | 35046 ft | 471 kts | 141° |
| 2026-05-05 20:38 | 44.49996 | 26.02918 | 35036 ft | 472 kts | 141° |
| 2026-05-05 20:39 | 44.44754 | 26.08462 | 35052 ft | 472 kts | 141° |
| 2026-05-05 20:39 | 44.39518 | 26.13980 | 35052 ft | 471 kts | 141° |
| 2026-05-05 20:40 | 44.34265 | 26.19488 | 35049 ft | 471 kts | 141° |
| 2026-05-05 20:40 | 44.29026 | 26.24975 | 35067 ft | 471 kts | 141° |
| 2026-05-05 20:41 | 44.23817 | 26.30422 | 35051 ft | 471 kts | 141° |
| 2026-05-05 20:41 | 44.18561 | 26.35907 | 35050 ft | 471 kts | 141° |
| 2026-05-05 20:42 | 44.13311 | 26.41366 | 35042 ft | 471 kts | 141° |
| 2026-05-05 20:42 | 44.08060 | 26.46817 | 35044 ft | 471 kts | 141° |
| 2026-05-05 20:43 | 44.02761 | 26.52180 | 35053 ft | 472 kts | 144° |
| 2026-05-05 20:43 | 43.97261 | 26.57165 | 35049 ft | 472 kts | 146° |
| 2026-05-05 20:44 | 43.91695 | 26.62003 | 35035 ft | 472 kts | 146° |
| 2026-05-05 20:44 | 43.86144 | 26.66905 | 35063 ft | 473 kts | 146° |
| 2026-05-05 20:45 | 43.77912 | 26.74301 | 35075 ft | 472 kts | 145° |
| 2026-05-05 20:45 | 43.72388 | 26.79262 | 35071 ft | 473 kts | 145° |
| 2026-05-05 20:46 | 43.66864 | 26.84195 | 35072 ft | 473 kts | 146° |
| 2026-05-05 20:46 | 43.61326 | 26.89105 | 35088 ft | 473 kts | 146° |
| 2026-05-05 20:47 | 43.55783 | 26.94011 | 35084 ft | 472 kts | 146° |
| 2026-05-05 20:47 | 43.50262 | 26.98910 | 35093 ft | 472 kts | 146° |
| 2026-05-05 20:48 | 43.45673 | 27.02974 | 35089 ft | 472 kts | 146° |
| 2026-05-05 20:49 | 43.34015 | 27.13226 | 35104 ft | 469 kts | 146° |
| 2026-05-05 20:49 | 43.28522 | 27.18055 | 35107 ft | 468 kts | 146° |
| 2026-05-05 20:50 | 43.23069 | 27.22834 | 35110 ft | 468 kts | 146° |
| 2026-05-05 20:50 | 43.17586 | 27.27622 | 35119 ft | 466 kts | 147° |
| 2026-05-05 20:51 | 43.12120 | 27.32405 | 35111 ft | 466 kts | 146° |
| 2026-05-05 20:51 | 43.06662 | 27.37159 | 35108 ft | 465 kts | 147° |
| 2026-05-05 20:52 | 43.01208 | 27.41894 | 35118 ft | 464 kts | 146° |
| 2026-05-05 20:52 | 42.96403 | 27.47715 | 35112 ft | 461 kts | 131° |
| 2026-05-05 20:53 | 42.92079 | 27.54196 | 35093 ft | 461 kts | 131° |
| 2026-05-05 20:53 | 42.87745 | 27.60642 | 35089 ft | 461 kts | 131° |
| 2026-05-05 20:54 | 42.83404 | 27.67087 | 35090 ft | 461 kts | 131° |
| 2026-05-05 20:54 | 42.79048 | 27.73556 | 35019 ft | 470 kts | 131° |
| 2026-05-05 20:55 | 42.76828 | 27.76844 | 34704 ft | 473 kts | 131° |
| 2026-05-05 20:55 | 42.74595 | 27.80141 | 34020 ft | 473 kts | 131° |
| 2026-05-05 20:55 | 42.72371 | 27.83424 | 33270 ft | 472 kts | 132° |
| 2026-05-05 20:55 | 42.70147 | 27.86707 | 32561 ft | 470 kts | 132° |
| 2026-05-05 20:56 | 42.67934 | 27.89970 | 31789 ft | 470 kts | 131° |
| 2026-05-05 20:56 | 42.65743 | 27.93194 | 30994 ft | 471 kts | 132° |
| 2026-05-05 20:56 | 42.63521 | 27.96463 | 30176 ft | 471 kts | 132° |
| 2026-05-05 20:56 | 42.61292 | 27.99735 | 29185 ft | 472 kts | 132° |
| 2026-05-05 20:57 | 42.59055 | 28.03018 | 28133 ft | 474 kts | 132° |
| 2026-05-05 20:57 | 42.56808 | 28.06311 | 27054 ft | 477 kts | 131° |
| 2026-05-05 20:57 | 42.54552 | 28.09609 | 26129 ft | 476 kts | 131° |
| 2026-05-05 20:57 | 42.52307 | 28.12886 | 25343 ft | 472 kts | 131° |
| 2026-05-05 20:58 | 42.50083 | 28.16130 | 24586 ft | 467 kts | 131° |
| 2026-05-05 20:58 | 42.47879 | 28.19342 | 23839 ft | 463 kts | 131° |
| 2026-05-05 20:58 | 42.45695 | 28.22526 | 23007 ft | 459 kts | 131° |
| 2026-05-05 20:58 | 42.43463 | 28.25572 | 22215 ft | 455 kts | 139° |
| 2026-05-05 20:59 | 42.40801 | 28.27848 | 21451 ft | 451 kts | 155° |
| 2026-05-05 20:59 | 42.37827 | 28.29108 | 20693 ft | 447 kts | 170° |
| 2026-05-05 20:59 | 42.34744 | 28.29297 | 19949 ft | 443 kts | 185° |
| 2026-05-05 20:59 | 42.31698 | 28.28808 | 19180 ft | 439 kts | 187° |
| 2026-05-05 21:00 | 42.28677 | 28.28280 | 18477 ft | 435 kts | 187° |
| 2026-05-05 21:00 | 42.25681 | 28.27741 | 17686 ft | 432 kts | 187° |
| 2026-05-05 21:00 | 42.22717 | 28.27200 | 16912 ft | 429 kts | 187° |
| 2026-05-05 21:00 | 42.19795 | 28.26670 | 16625 ft | 415 kts | 187° |
| 2026-05-05 21:01 | 42.16993 | 28.26167 | 16537 ft | 398 kts | 187° |
| 2026-05-05 21:01 | 42.14306 | 28.25692 | 16438 ft | 381 kts | 187° |
| 2026-05-05 21:01 | 42.11731 | 28.25245 | 16346 ft | 366 kts | 187° |
| 2026-05-05 21:01 | 42.09250 | 28.24813 | 16273 ft | 352 kts | 187° |
| 2026-05-05 21:02 | 42.06870 | 28.24392 | 16189 ft | 340 kts | 187° |
| 2026-05-05 21:02 | 42.04566 | 28.23985 | 16113 ft | 328 kts | 187° |
| 2026-05-05 21:02 | 42.02331 | 28.23589 | 16038 ft | 318 kts | 187° |
| 2026-05-05 21:02 | 42.00178 | 28.23210 | 15965 ft | 308 kts | 187° |
| 2026-05-05 21:03 | 41.98112 | 28.22848 | 15898 ft | 298 kts | 187° |
| 2026-05-05 21:03 | 41.96050 | 28.22488 | 15710 ft | 295 kts | 187° |
| 2026-05-05 21:03 | 41.93919 | 28.22116 | 15481 ft | 333 kts | 187° |
| 2026-05-05 21:03 | 41.91486 | 28.21690 | 15225 ft | 370 kts | 187° |
| 2026-05-05 21:04 | 41.88822 | 28.21227 | 14972 ft | 402 kts | 187° |
| 2026-05-05 21:04 | 41.85950 | 28.20731 | 14727 ft | 431 kts | 187° |
| 2026-05-05 21:04 | 41.82886 | 28.20197 | 14484 ft | 456 kts | 187° |
| 2026-05-05 21:04 | 41.79722 | 28.19636 | 15017 ft | 450 kts | 187° |
| 2026-05-05 21:05 | 41.76688 | 28.19096 | 15143 ft | 435 kts | 187° |
| 2026-05-05 21:05 | 41.73676 | 28.18564 | 14901 ft | 439 kts | 187° |
| 2026-05-05 21:05 | 41.70630 | 28.18032 | 14657 ft | 443 kts | 187° |
| 2026-05-05 21:05 | 41.67672 | 28.17516 | 14420 ft | 413 kts | 187° |
| 2026-05-05 21:06 | 41.64839 | 28.17025 | 14199 ft | 415 kts | 187° |
| 2026-05-05 21:06 | 41.61971 | 28.16531 | 13955 ft | 416 kts | 187° |
| 2026-05-05 21:06 | 41.59100 | 28.16038 | 13696 ft | 415 kts | 187° |
| 2026-05-05 21:06 | 41.56244 | 28.15544 | 13420 ft | 413 kts | 187° |
| 2026-05-05 21:07 | 41.53397 | 28.15050 | 13088 ft | 412 kts | 187° |
| 2026-05-05 21:07 | 41.52474 | 28.14889 | 12874 ft | 412 kts | 187° |
| 2026-05-05 21:08 | 41.39091 | 28.12579 | 10667 ft | 399 kts | 187° |
| 2026-05-05 21:08 | 41.36342 | 28.12110 | 10422 ft | 398 kts | 187° |
| 2026-05-05 21:08 | 41.33595 | 28.11638 | 10056 ft | 396 kts | 188° |
| 2026-05-05 21:09 | 41.30926 | 28.11178 | 9995 ft | 375 kts | 188° |
| 2026-05-05 21:09 | 41.28415 | 28.10746 | 10012 ft | 355 kts | 188° |
| 2026-05-05 21:09 | 41.26066 | 28.10080 | 10006 ft | 337 kts | 202° |
| 2026-05-05 21:09 | 41.24081 | 28.08628 | 10010 ft | 316 kts | 221° |
| 2026-05-05 21:10 | 41.22518 | 28.06700 | 10006 ft | 299 kts | 228° |
| 2026-05-05 21:10 | 41.21057 | 28.04802 | 10007 ft | 290 kts | 228° |
| 2026-05-05 21:10 | 41.19619 | 28.02939 | 10009 ft | 288 kts | 228° |
| 2026-05-05 21:10 | 41.18057 | 28.01259 | 10012 ft | 292 kts | 214° |
| 2026-05-05 21:11 | 41.16229 | 27.99883 | 10010 ft | 310 kts | 211° |
| 2026-05-05 21:11 | 41.14226 | 27.98750 | 9876 ft | 316 kts | 193° |
| 2026-05-05 21:11 | 41.12778 | 27.98554 | 9788 ft | 316 kts | 176° |
| 2026-05-05 21:11 | 41.10661 | 27.99183 | 9654 ft | 311 kts | 152° |
| 2026-05-05 21:12 | 41.08913 | 28.00789 | 9522 ft | 303 kts | 129° |
| 2026-05-05 21:12 | 41.07761 | 28.03054 | 9390 ft | 294 kts | 108° |
| 2026-05-05 21:12 | 41.07037 | 28.05579 | 9257 ft | 293 kts | 105° |
| 2026-05-05 21:12 | 41.06094 | 28.08929 | 9106 ft | 293 kts | 105° |
| 2026-05-05 21:13 | 41.05376 | 28.11454 | 8968 ft | 293 kts | 105° |
| 2026-05-05 21:13 | 41.04888 | 28.13163 | 8886 ft | 293 kts | 105° |
| 2026-05-05 21:13 | 41.04174 | 28.15655 | 8756 ft | 292 kts | 105° |
| 2026-05-05 21:13 | 41.03453 | 28.18171 | 8611 ft | 292 kts | 105° |
| 2026-05-05 21:14 | 41.02729 | 28.20695 | 8195 ft | 295 kts | 105° |
| 2026-05-05 21:14 | 41.01999 | 28.23238 | 7829 ft | 294 kts | 106° |
| 2026-05-05 21:14 | 41.01274 | 28.25753 | 7414 ft | 295 kts | 106° |
| 2026-05-05 21:14 | 41.00545 | 28.28296 | 7171 ft | 290 kts | 106° |
| 2026-05-05 21:15 | 40.99831 | 28.30772 | 6931 ft | 286 kts | 106° |
| 2026-05-05 21:15 | 40.99125 | 28.33220 | 6637 ft | 284 kts | 106° |
| 2026-05-05 21:15 | 40.98423 | 28.35657 | 6309 ft | 282 kts | 106° |
| 2026-05-05 21:15 | 40.97726 | 28.38073 | 6013 ft | 281 kts | 106° |
| 2026-05-05 21:16 | 40.96827 | 28.40380 | 5708 ft | 282 kts | 115° |
| 2026-05-05 21:16 | 40.95859 | 28.42621 | 5393 ft | 280 kts | 115° |
| 2026-05-05 21:16 | 40.94908 | 28.44817 | 5096 ft | 278 kts | 115° |
| 2026-05-05 21:16 | 40.93944 | 28.47049 | 5002 ft | 277 kts | 115° |
| 2026-05-05 21:17 | 40.92989 | 28.49268 | 5011 ft | 279 kts | 115° |
| 2026-05-05 21:17 | 40.92029 | 28.51501 | 5011 ft | 280 kts | 115° |
| 2026-05-05 21:17 | 40.91073 | 28.53716 | 5011 ft | 273 kts | 115° |
| 2026-05-05 21:17 | 40.90143 | 28.55876 | 5008 ft | 268 kts | 112° |
| 2026-05-05 21:18 | 40.89580 | 28.58164 | 5005 ft | 259 kts | 91° |
| 2026-05-05 21:18 | 40.89622 | 28.60498 | 5007 ft | 251 kts | 73° |
| 2026-05-05 21:18 | 40.90132 | 28.62679 | 5011 ft | 248 kts | 65° |
| 2026-05-05 21:18 | 40.90693 | 28.64827 | 5011 ft | 247 kts | 66° |
| 2026-05-05 21:19 | 40.91254 | 28.66970 | 5018 ft | 247 kts | 64° |
| 2026-05-05 21:19 | 40.92129 | 28.68898 | 5012 ft | 244 kts | 45° |
| 2026-05-05 21:19 | 40.93418 | 28.70269 | 5008 ft | 240 kts | 27° |
| 2026-05-05 21:19 | 40.94883 | 28.71333 | 5002 ft | 238 kts | 27° |
| 2026-05-05 21:20 | 40.96294 | 28.72366 | 5010 ft | 224 kts | 27° |
| 2026-05-05 21:20 | 40.97658 | 28.73187 | 5006 ft | 207 kts | 11° |
| 2026-05-05 21:20 | 40.99052 | 28.73301 | 5009 ft | 199 kts | 359° |
| 2026-05-05 21:20 | 41.00434 | 28.73272 | 5008 ft | 198 kts | 359° |
| 2026-05-05 21:21 | 41.01814 | 28.73247 | 4987 ft | 199 kts | 359° |
| 2026-05-05 21:21 | 41.03190 | 28.73220 | 4830 ft | 195 kts | 359° |
| 2026-05-05 21:21 | 41.04540 | 28.73195 | 4590 ft | 193 kts | 359° |
| 2026-05-05 21:21 | 41.05876 | 28.73169 | 4331 ft | 192 kts | 359° |
| 2026-05-05 21:22 | 41.07208 | 28.73143 | 4078 ft | 191 kts | 359° |
| 2026-05-05 21:22 | 41.08537 | 28.73118 | 3817 ft | 191 kts | 359° |
| 2026-05-05 21:22 | 41.09864 | 28.73092 | 3569 ft | 190 kts | 359° |
| 2026-05-05 21:22 | 41.11181 | 28.73067 | 3317 ft | 188 kts | 359° |
| 2026-05-05 21:23 | 41.12472 | 28.73042 | 3070 ft | 182 kts | 359° |
| 2026-05-05 21:23 | 41.13713 | 28.73018 | 2813 ft | 176 kts | 359° |
| 2026-05-05 21:23 | 41.14914 | 28.72995 | 2581 ft | 167 kts | 359° |
| 2026-05-05 21:23 | 41.16051 | 28.72973 | 2364 ft | 156 kts | 359° |
| 2026-05-05 21:24 | 41.17076 | 28.72953 | 2154 ft | 142 kts | 359° |
| 2026-05-05 21:24 | 41.18044 | 28.72934 | 1962 ft | 137 kts | 359° |
| 2026-05-05 21:24 | 41.18994 | 28.72916 | 1769 ft | 136 kts | 359° |
| 2026-05-05 21:24 | 41.19939 | 28.72897 | 1592 ft | 136 kts | 359° |
| 2026-05-05 21:25 | 41.20877 | 28.72877 | 1470 ft | 135 kts | 358° |
| 2026-05-05 21:25 | 41.21826 | 28.72861 | 1286 ft | 136 kts | 359° |
| 2026-05-05 21:25 | 41.22771 | 28.72859 | 1152 ft | 136 kts | 360° |
| 2026-05-05 21:25 | 41.23713 | 28.72834 | 947 ft | 135 kts | 359° |
| 2026-05-05 21:26 | 41.24638 | 28.72805 | 764 ft | 135 kts | 360° |
| 2026-05-05 21:26 | 41.25570 | 28.72788 | 532 ft | 133 kts | 1° |
| 2026-05-05 21:26 | 41.26489 | 28.72771 | 343 ft | 127 kts | 1° |
| 2026-05-05 21:26 | 41.27240 | 28.72753 | 332 ft | 84 kts | 0° |
| 2026-05-05 21:27 | 41.27669 | 28.72750 | 331 ft | 49 kts | 359° |
| 2026-05-05 21:27 | 41.27974 | 28.72770 | 332 ft | 33 kts | 20° |
| 2026-05-05 21:27 | 41.28103 | 28.72859 | 334 ft | 19 kts | 26° |
| 2026-05-05 21:27 | 41.28086 | 28.72960 | 331 ft | 17 kts | 168° |
| 2026-05-05 21:28 | 41.27957 | 28.72962 | 332 ft | 20 kts | 179° |
| 2026-05-05 21:28 | 41.27807 | 28.72966 | 333 ft | 23 kts | 179° |
| 2026-05-05 21:28 | 41.27636 | 28.72971 | 330 ft | 26 kts | 179° |
| 2026-05-05 21:28 | 41.27506 | 28.72975 | 333 ft | 0 kts | 179° |
| 2026-05-05 21:29 | 41.27500 | 28.72975 | 331 ft | 1 kts | 179° |
| 2026-05-05 21:29 | 41.27442 | 28.72977 | 334 ft | 22 kts | 179° |
| 2026-05-05 21:29 | 41.27268 | 28.72980 | 334 ft | 27 kts | 179° |
| 2026-05-05 21:29 | 41.27073 | 28.72986 | 334 ft | 29 kts | 178° |
| 2026-05-05 21:30 | 41.26897 | 28.72994 | 331 ft | 18 kts | 178° |
| 2026-05-05 21:30 | 41.26859 | 28.73042 | 331 ft | 5 kts | 84° |
| 2026-05-05 21:30 | 41.26865 | 28.73231 | 334 ft | 28 kts | 89° |
| 2026-05-05 21:30 | 41.26869 | 28.73492 | 332 ft | 15 kts | 89° |
| 2026-05-05 21:31 | 41.26826 | 28.73530 | 333 ft | 11 kts | 187° |
| 2026-05-05 21:31 | 41.26780 | 28.73528 | 334 ft | 0 kts | 179° |